sensor_id;sensor_type;location;lat;lon;timestamp;temperature;humidity
13682;DHT22;6913;49.892;7.936;2022-12-26T02:40:01;8.90;99.90
13682;DHT22;6913;49.892;7.936;2022-12-26T02:42:37;9.50;99.90
13682;DHT22;6913;49.892;7.936;2022-12-26T02:45:13;9.20;99.90
13682;DHT22;6913;49.892;7.936;2022-12-26T02:48:08;8.80;99.90
13682;DHT22;6913;49.892;7.936;2022-12-26T02:50:47;9.00;99.90
13682;DHT22;6913;49.892;7.936;2022-12-26T02:53:40;8.70;99.90
13682;DHT22;6913;49.892;7.936;2022-12-26T02:56:30;8.70;99.90
13682;DHT22;6913;49.892;7.936;2022-12-26T02:59:21;8.50;99.90
13682;DHT22;6913;49.892;7.936;2022-12-26T03:02:19;8.60;99.90
13682;DHT22;6913;49.892;7.936;2022-12-26T03:05:12;8.50;99.90
13682;DHT22;6913;49.892;7.936;2022-12-26T03:07:58;8.40;99.90
13682;DHT22;6913;49.892;7.936;2022-12-26T03:10:44;8.40;99.90
13682;DHT22;6913;49.892;7.936;2022-12-26T03:13:44;8.80;99.90
13682;DHT22;6913;49.892;7.936;2022-12-26T03:16:13;8.30;99.90
13682;DHT22;6913;49.892;7.936;2022-12-26T03:19:02;8.30;99.90
13682;DHT22;6913;49.892;7.936;2022-12-26T03:21:35;8.30;99.90
13682;DHT22;6913;49.892;7.936;2022-12-26T03:24:04;8.30;99.90
13682;DHT22;6913;49.892;7.936;2022-12-26T03:26:34;8.20;99.90
13682;DHT22;6913;49.892;7.936;2022-12-26T03:29:10;8.50;99.90
13682;DHT22;6913;49.892;7.936;2022-12-26T03:31:54;8.20;99.90
13682;DHT22;6913;49.892;7.936;2022-12-26T03:34:22;8.00;99.90
13682;DHT22;6913;49.892;7.936;2022-12-26T03:36:59;8.10;99.90
13682;DHT22;6913;49.892;7.936;2022-12-26T03:39:31;8.00;99.90
13682;DHT22;6913;49.892;7.936;2022-12-26T03:42:20;8.00;99.90
13682;DHT22;6913;49.892;7.936;2022-12-26T03:45:14;7.90;99.90
13682;DHT22;6913;49.892;7.936;2022-12-26T03:48:06;7.80;99.90
13682;DHT22;6913;49.892;7.936;2022-12-26T03:51:00;8.00;99.90
13682;DHT22;6913;49.892;7.936;2022-12-26T03:53:53;7.90;99.90
13682;DHT22;6913;49.892;7.936;2022-12-26T03:56:41;7.80;99.90
13682;DHT22;6913;49.892;7.936;2022-12-26T03:59:33;7.70;99.90
13682;DHT22;6913;49.892;7.936;2022-12-26T04:02:19;7.40;99.90
13682;DHT22;6913;49.892;7.936;2022-12-26T04:05:06;7.50;99.90
13682;DHT22;6913;49.892;7.936;2022-12-26T04:08:01;7.50;99.90
13682;DHT22;6913;49.892;7.936;2022-12-26T04:10:52;7.90;99.90
13682;DHT22;6913;49.892;7.936;2022-12-26T04:13:45;7.70;99.90
13682;DHT22;6913;49.892;7.936;2022-12-26T04:16:36;8.10;99.90
13682;DHT22;6913;49.892;7.936;2022-12-26T04:19:34;7.70;99.90
13682;DHT22;6913;49.892;7.936;2022-12-26T04:22:05;7.70;99.90
13682;DHT22;6913;49.892;7.936;2022-12-26T04:24:56;7.80;99.90
13682;DHT22;6913;49.892;7.936;2022-12-26T04:27:44;7.80;99.90
13682;DHT22;6913;49.892;7.936;2022-12-26T04:30:31;8.20;99.90
13682;DHT22;6913;49.892;7.936;2022-12-26T04:33:19;8.20;99.90
13682;DHT22;6913;49.892;7.936;2022-12-26T04:36:10;8.20;99.90
13682;DHT22;6913;49.892;7.936;2022-12-26T04:39:01;8.30;99.90
13682;DHT22;6913;49.892;7.936;2022-12-26T04:41:48;8.30;99.90
13682;DHT22;6913;49.892;7.936;2022-12-26T04:44:35;8.40;99.90
13682;DHT22;6913;49.892;7.936;2022-12-26T04:47:02;8.40;99.90
13682;DHT22;6913;49.892;7.936;2022-12-26T04:49:29;8.40;99.90
13682;DHT22;6913;49.892;7.936;2022-12-26T04:52:13;8.50;99.90
13682;DHT22;6913;49.892;7.936;2022-12-26T04:54:40;8.40;99.90
13682;DHT22;6913;49.892;7.936;2022-12-26T04:57:09;8.40;99.90
13682;DHT22;6913;49.892;7.936;2022-12-26T04:59:37;8.50;99.90
13682;DHT22;6913;49.892;7.936;2022-12-26T05:02:04;8.50;99.90
13682;DHT22;6913;49.892;7.936;2022-12-26T05:04:48;8.50;99.90
13682;DHT22;6913;49.892;7.936;2022-12-26T05:07:34;8.50;99.90
13682;DHT22;6913;49.892;7.936;2022-12-26T05:10:21;8.70;99.90
13682;DHT22;6913;49.892;7.936;2022-12-26T05:12:49;8.80;99.90
13682;DHT22;6913;49.892;7.936;2022-12-26T05:15:18;9.10;99.90
13682;DHT22;6913;49.892;7.936;2022-12-26T05:17:45;9.20;99.90
13682;DHT22;6913;49.892;7.936;2022-12-26T05:20:29;9.30;99.90
13682;DHT22;6913;49.892;7.936;2022-12-26T05:23:15;9.40;99.90
13682;DHT22;6913;49.892;7.936;2022-12-26T05:26:01;9.40;99.90
13682;DHT22;6913;49.892;7.936;2022-12-26T05:28:50;9.70;99.90
13682;DHT22;6913;49.892;7.936;2022-12-26T05:31:19;9.20;99.90
13682;DHT22;6913;49.892;7.936;2022-12-26T05:33:45;8.90;99.90
13682;DHT22;6913;49.892;7.936;2022-12-26T05:36:34;9.40;99.90
13682;DHT22;6913;49.892;7.936;2022-12-26T05:39:01;9.20;99.90
13682;DHT22;6913;49.892;7.936;2022-12-26T05:41:28;9.10;99.90
13682;DHT22;6913;49.892;7.936;2022-12-26T05:43:55;9.10;99.90
13682;DHT22;6913;49.892;7.936;2022-12-26T05:46:24;9.10;99.90
13682;DHT22;6913;49.892;7.936;2022-12-26T05:48:51;9.40;99.90
13682;DHT22;6913;49.892;7.936;2022-12-26T05:51:18;9.50;99.90
13682;DHT22;6913;49.892;7.936;2022-12-26T05:53:45;9.60;99.90
13682;DHT22;6913;49.892;7.936;2022-12-26T05:56:15;9.90;99.90
13682;DHT22;6913;49.892;7.936;2022-12-26T05:58:42;10.00;99.90
13682;DHT22;6913;49.892;7.936;2022-12-26T06:01:11;10.60;99.90
13682;DHT22;6913;49.892;7.936;2022-12-26T06:03:39;10.10;99.90
13682;DHT22;6913;49.892;7.936;2022-12-26T06:06:08;10.10;99.90
13682;DHT22;6913;49.892;7.936;2022-12-26T06:08:35;10.30;99.90
13682;DHT22;6913;49.892;7.936;2022-12-26T06:11:04;10.30;99.90
13682;DHT22;6913;49.892;7.936;2022-12-26T06:13:31;10.60;99.90
13682;DHT22;6913;49.892;7.936;2022-12-26T06:15:58;10.80;99.90
13682;DHT22;6913;49.892;7.936;2022-12-26T06:18:25;10.80;99.90
13682;DHT22;6913;49.892;7.936;2022-12-26T06:20:53;10.80;99.90
13682;DHT22;6913;49.892;7.936;2022-12-26T06:23:20;10.90;99.90
13682;DHT22;6913;49.892;7.936;2022-12-26T06:25:53;10.80;99.90
13682;DHT22;6913;49.892;7.936;2022-12-26T06:28:20;10.80;99.90
13682;DHT22;6913;49.892;7.936;2022-12-26T06:30:47;10.70;99.90
13682;DHT22;6913;49.892;7.936;2022-12-26T06:33:14;10.80;99.90
13682;DHT22;6913;49.892;7.936;2022-12-26T06:35:41;10.70;99.90
13682;DHT22;6913;49.892;7.936;2022-12-26T06:38:09;10.80;99.90
13682;DHT22;6913;49.892;7.936;2022-12-26T06:40:37;10.80;99.90
13682;DHT22;6913;49.892;7.936;2022-12-26T06:43:05;10.80;99.90
13682;DHT22;6913;49.892;7.936;2022-12-26T06:45:31;10.80;99.90
13682;DHT22;6913;49.892;7.936;2022-12-26T06:47:58;10.80;99.90
13682;DHT22;6913;49.892;7.936;2022-12-26T06:50:26;10.70;99.90
13682;DHT22;6913;49.892;7.936;2022-12-26T06:52:53;10.80;99.90
13682;DHT22;6913;49.892;7.936;2022-12-26T06:55:21;10.80;99.90
13682;DHT22;6913;49.892;7.936;2022-12-26T06:57:50;10.80;99.90
13682;DHT22;6913;49.892;7.936;2022-12-26T07:00:18;10.90;99.90
13682;DHT22;6913;49.892;7.936;2022-12-26T07:02:48;10.90;99.90
13682;DHT22;6913;49.892;7.936;2022-12-26T07:05:15;11.20;99.90
13682;DHT22;6913;49.892;7.936;2022-12-26T07:07:42;10.90;99.90
13682;DHT22;6913;49.892;7.936;2022-12-26T07:10:09;11.00;99.90
13682;DHT22;6913;49.892;7.936;2022-12-26T07:12:37;11.00;99.90
13682;DHT22;6913;49.892;7.936;2022-12-26T07:15:05;10.90;99.90
13682;DHT22;6913;49.892;7.936;2022-12-26T07:17:34;10.90;99.90
13682;DHT22;6913;49.892;7.936;2022-12-26T07:20:01;10.90;99.90
13682;DHT22;6913;49.892;7.936;2022-12-26T07:22:28;11.10;99.90
13682;DHT22;6913;49.892;7.936;2022-12-26T07:24:55;10.80;99.90
13682;DHT22;6913;49.892;7.936;2022-12-26T07:27:21;10.80;99.90
13682;DHT22;6913;49.892;7.936;2022-12-26T07:29:50;10.80;99.90
13682;DHT22;6913;49.892;7.936;2022-12-26T07:32:16;11.10;99.90
13682;DHT22;6913;49.892;7.936;2022-12-26T07:34:43;10.70;99.90
13682;DHT22;6913;49.892;7.936;2022-12-26T07:37:10;10.60;99.90
13682;DHT22;6913;49.892;7.936;2022-12-26T07:39:37;10.70;99.90
13682;DHT22;6913;49.892;7.936;2022-12-26T07:42:03;10.60;99.90
13682;DHT22;6913;49.892;7.936;2022-12-26T07:44:31;10.60;99.90
13682;DHT22;6913;49.892;7.936;2022-12-26T07:47:00;10.90;99.90
13682;DHT22;6913;49.892;7.936;2022-12-26T07:49:27;10.70;99.90
13682;DHT22;6913;49.892;7.936;2022-12-26T07:51:54;10.70;99.90
13682;DHT22;6913;49.892;7.936;2022-12-26T07:54:20;10.70;99.90
13682;DHT22;6913;49.892;7.936;2022-12-26T07:56:47;10.60;99.90
13682;DHT22;6913;49.892;7.936;2022-12-26T07:59:16;10.90;99.90
13682;DHT22;6913;49.892;7.936;2022-12-26T08:01:43;10.60;99.90
13682;DHT22;6913;49.892;7.936;2022-12-26T08:04:12;10.50;99.90
13682;DHT22;6913;49.892;7.936;2022-12-26T08:06:39;10.50;99.90
13682;DHT22;6913;49.892;7.936;2022-12-26T08:09:06;10.60;99.90
13682;DHT22;6913;49.892;7.936;2022-12-26T08:11:34;10.60;99.90
13682;DHT22;6913;49.892;7.936;2022-12-26T08:14:02;10.50;99.90
13682;DHT22;6913;49.892;7.936;2022-12-26T08:16:29;10.50;99.90
13682;DHT22;6913;49.892;7.936;2022-12-26T08:18:56;10.40;99.90
13682;DHT22;6913;49.892;7.936;2022-12-26T08:21:24;10.40;99.90
13682;DHT22;6913;49.892;7.936;2022-12-26T08:23:51;10.80;99.90
13682;DHT22;6913;49.892;7.936;2022-12-26T08:26:18;10.40;99.90
13682;DHT22;6913;49.892;7.936;2022-12-26T08:28:48;10.40;99.90
13682;DHT22;6913;49.892;7.936;2022-12-26T08:31:16;10.40;99.90
13682;DHT22;6913;49.892;7.936;2022-12-26T08:33:43;10.40;99.90
13682;DHT22;6913;49.892;7.936;2022-12-26T08:36:11;11.30;99.90
13682;DHT22;6913;49.892;7.936;2022-12-26T08:38:39;10.80;99.90
13682;DHT22;6913;49.892;7.936;2022-12-26T08:41:06;10.80;99.90
13682;DHT22;6913;49.892;7.936;2022-12-26T08:43:33;10.50;99.90
13682;DHT22;6913;49.892;7.936;2022-12-26T08:46:02;10.90;99.90
13682;DHT22;6913;49.892;7.936;2022-12-26T08:48:29;10.50;99.90
13682;DHT22;6913;49.892;7.936;2022-12-26T08:50:57;10.50;99.90
13682;DHT22;6913;49.892;7.936;2022-12-26T08:53:25;10.60;99.90
13682;DHT22;6913;49.892;7.936;2022-12-26T08:55:55;10.60;99.90
13682;DHT22;6913;49.892;7.936;2022-12-26T08:58:22;10.60;99.90
13682;DHT22;6913;49.892;7.936;2022-12-26T09:00:49;10.60;99.90
13682;DHT22;6913;49.892;7.936;2022-12-26T09:03:16;10.60;99.90
13682;DHT22;6913;49.892;7.936;2022-12-26T09:05:43;10.60;99.90
13682;DHT22;6913;49.892;7.936;2022-12-26T09:08:11;10.60;99.90
13682;DHT22;6913;49.892;7.936;2022-12-26T09:10:39;10.60;99.90
13682;DHT22;6913;49.892;7.936;2022-12-26T09:13:07;10.60;99.90
13682;DHT22;6913;49.892;7.936;2022-12-26T09:15:34;10.80;99.90
13682;DHT22;6913;49.892;7.936;2022-12-26T09:18:01;10.60;99.90
13682;DHT22;6913;49.892;7.936;2022-12-26T09:20:27;10.60;99.90
13682;DHT22;6913;49.892;7.936;2022-12-26T09:22:54;10.60;99.90
13682;DHT22;6913;49.892;7.936;2022-12-26T09:25:23;10.70;99.90
13682;DHT22;6913;49.892;7.936;2022-12-26T09:27:50;10.70;99.90
13682;DHT22;6913;49.892;7.936;2022-12-26T09:30:21;11.00;99.90
13682;DHT22;6913;49.892;7.936;2022-12-26T09:32:48;10.80;99.90
13682;DHT22;6913;49.892;7.936;2022-12-26T09:35:15;10.90;99.90
13682;DHT22;6913;49.892;7.936;2022-12-26T09:37:42;10.90;99.90
13682;DHT22;6913;49.892;7.936;2022-12-26T09:40:20;10.90;99.90
13682;DHT22;6913;49.892;7.936;2022-12-26T09:42:58;10.90;99.90
13682;DHT22;6913;49.892;7.936;2022-12-26T09:45:41;10.90;99.90
13682;DHT22;6913;49.892;7.936;2022-12-26T09:48:13;11.00;99.90
13682;DHT22;6913;49.892;7.936;2022-12-26T09:50:44;10.90;99.90
13682;DHT22;6913;49.892;7.936;2022-12-26T09:53:17;10.90;99.90
13682;DHT22;6913;49.892;7.936;2022-12-26T09:55:49;11.00;99.90
13682;DHT22;6913;49.892;7.936;2022-12-26T09:58:23;11.00;99.90
13682;DHT22;6913;49.892;7.936;2022-12-26T10:00:56;11.00;99.90
13682;DHT22;6913;49.892;7.936;2022-12-26T10:03:24;11.00;99.90
13682;DHT22;6913;49.892;7.936;2022-12-26T10:06:06;10.90;99.90
13682;DHT22;6913;49.892;7.936;2022-12-26T10:11:57;11.00;99.90
13682;DHT22;6913;49.892;7.936;2022-12-26T10:14:35;11.10;99.90
13682;DHT22;6913;49.892;7.936;2022-12-26T10:17:12;10.90;99.90
13682;DHT22;6913;49.892;7.936;2022-12-26T10:19:59;11.00;99.90
13682;DHT22;6913;49.892;7.936;2022-12-26T10:22:55;10.90;99.90
13682;DHT22;6913;49.892;7.936;2022-12-26T10:25:34;10.90;99.90
13682;DHT22;6913;49.892;7.936;2022-12-26T10:28:03;10.90;99.90
13682;DHT22;6913;49.892;7.936;2022-12-26T10:30:36;10.90;99.90
13682;DHT22;6913;49.892;7.936;2022-12-26T10:33:13;10.90;99.90
13682;DHT22;6913;49.892;7.936;2022-12-26T10:35:44;11.10;99.90
13682;DHT22;6913;49.892;7.936;2022-12-26T10:38:15;10.90;99.90
13682;DHT22;6913;49.892;7.936;2022-12-26T10:40:48;10.80;99.90
13682;DHT22;6913;49.892;7.936;2022-12-26T10:43:23;11.20;99.90
13682;DHT22;6913;49.892;7.936;2022-12-26T10:46:10;10.90;99.90
13682;DHT22;6913;49.892;7.936;2022-12-26T10:48:42;11.00;99.90
13682;DHT22;6913;49.892;7.936;2022-12-26T10:51:09;11.20;99.90
13682;DHT22;6913;49.892;7.936;2022-12-26T10:53:40;11.00;99.90
13682;DHT22;6913;49.892;7.936;2022-12-26T10:56:07;11.00;99.90
13682;DHT22;6913;49.892;7.936;2022-12-26T10:58:35;11.10;99.90
13682;DHT22;6913;49.892;7.936;2022-12-26T11:01:31;11.20;99.90
13682;DHT22;6913;49.892;7.936;2022-12-26T11:04:01;11.20;99.90
13682;DHT22;6913;49.892;7.936;2022-12-26T11:06:32;11.50;99.90
13682;DHT22;6913;49.892;7.936;2022-12-26T11:08:59;11.30;99.90
13682;DHT22;6913;49.892;7.936;2022-12-26T11:11:27;11.00;99.90
13682;DHT22;6913;49.892;7.936;2022-12-26T11:14:26;11.40;99.90
13682;DHT22;6913;49.892;7.936;2022-12-26T11:16:56;12.00;99.90
13682;DHT22;6913;49.892;7.936;2022-12-26T11:19:30;11.40;99.90
13682;DHT22;6913;49.892;7.936;2022-12-26T11:22:19;11.50;99.90
13682;DHT22;6913;49.892;7.936;2022-12-26T11:25:09;11.60;99.90
13682;DHT22;6913;49.892;7.936;2022-12-26T11:27:38;11.60;99.90
13682;DHT22;6913;49.892;7.936;2022-12-26T11:30:18;11.90;99.90
13682;DHT22;6913;49.892;7.936;2022-12-26T11:32:47;11.80;99.90
13682;DHT22;6913;49.892;7.936;2022-12-26T11:35:18;11.90;99.90
13682;DHT22;6913;49.892;7.936;2022-12-26T11:37:50;12.00;99.90
13682;DHT22;6913;49.892;7.936;2022-12-26T11:40:20;12.10;99.90
13682;DHT22;6913;49.892;7.936;2022-12-26T11:42:49;12.20;99.90
13682;DHT22;6913;49.892;7.936;2022-12-26T11:45:21;12.20;99.90
13682;DHT22;6913;49.892;7.936;2022-12-26T11:47:49;12.20;99.90
13682;DHT22;6913;49.892;7.936;2022-12-26T11:50:19;12.10;99.90
13682;DHT22;6913;49.892;7.936;2022-12-26T11:52:51;12.20;99.90
13682;DHT22;6913;49.892;7.936;2022-12-26T11:55:27;12.10;99.90
13682;DHT22;6913;49.892;7.936;2022-12-26T11:57:58;12.20;99.90
13682;DHT22;6913;49.892;7.936;2022-12-26T12:00:27;12.20;99.90
13682;DHT22;6913;49.892;7.936;2022-12-26T12:02:54;12.20;99.90
13682;DHT22;6913;49.892;7.936;2022-12-26T12:05:35;12.30;99.90
13682;DHT22;6913;49.892;7.936;2022-12-26T12:08:25;12.30;99.90
13682;DHT22;6913;49.892;7.936;2022-12-26T12:14:09;12.30;99.90
13682;DHT22;6913;49.892;7.936;2022-12-26T12:16:45;12.30;99.90
13682;DHT22;6913;49.892;7.936;2022-12-26T12:22:34;12.40;99.90
13682;DHT22;6913;49.892;7.936;2022-12-26T12:25:31;12.30;99.90
13682;DHT22;6913;49.892;7.936;2022-12-26T12:28:06;12.30;99.90
13682;DHT22;6913;49.892;7.936;2022-12-26T12:30:41;12.20;99.90
13682;DHT22;6913;49.892;7.936;2022-12-26T12:33:27;12.20;99.90
13682;DHT22;6913;49.892;7.936;2022-12-26T12:36:06;12.20;99.90
13682;DHT22;6913;49.892;7.936;2022-12-26T12:38:44;12.20;99.90
13682;DHT22;6913;49.892;7.936;2022-12-26T12:41:22;12.30;99.90
13682;DHT22;6913;49.892;7.936;2022-12-26T12:43:57;12.20;99.90
13682;DHT22;6913;49.892;7.936;2022-12-26T12:46:32;12.20;99.90
13682;DHT22;6913;49.892;7.936;2022-12-26T12:52:11;12.20;99.90
13682;DHT22;6913;49.892;7.936;2022-12-26T12:55:06;12.20;99.90
13682;DHT22;6913;49.892;7.936;2022-12-26T12:57:42;12.20;99.90
13682;DHT22;6913;49.892;7.936;2022-12-26T13:00:14;12.30;99.90
13682;DHT22;6913;49.892;7.936;2022-12-26T13:02:45;12.30;99.90
13682;DHT22;6913;49.892;7.936;2022-12-26T13:05:21;12.60;99.90
13682;DHT22;6913;49.892;7.936;2022-12-26T13:07:56;12.20;99.90
13682;DHT22;6913;49.892;7.936;2022-12-26T13:10:30;12.30;99.90
13682;DHT22;6913;49.892;7.936;2022-12-26T13:13:03;12.20;99.90
13682;DHT22;6913;49.892;7.936;2022-12-26T13:15:37;12.20;99.90
13682;DHT22;6913;49.892;7.936;2022-12-26T13:18:12;12.20;99.90
13682;DHT22;6913;49.892;7.936;2022-12-26T13:20:42;12.20;99.90
13682;DHT22;6913;49.892;7.936;2022-12-26T13:23:17;12.20;99.90
13682;DHT22;6913;49.892;7.936;2022-12-26T13:26:08;12.50;99.90
13682;DHT22;6913;49.892;7.936;2022-12-26T13:28:42;12.50;99.90
13682;DHT22;6913;49.892;7.936;2022-12-26T13:31:10;12.20;99.90
13682;DHT22;6913;49.892;7.936;2022-12-26T13:33:36;12.20;99.90
13682;DHT22;6913;49.892;7.936;2022-12-26T13:36:04;12.10;99.90
13682;DHT22;6913;49.892;7.936;2022-12-26T13:41:37;12.20;99.90
13682;DHT22;6913;49.892;7.936;2022-12-26T13:44:25;12.10;99.90
13682;DHT22;6913;49.892;7.936;2022-12-26T13:46:54;12.10;99.90
13682;DHT22;6913;49.892;7.936;2022-12-26T13:49:27;12.10;99.90
13682;DHT22;6913;49.892;7.936;2022-12-26T13:52:00;12.10;99.90
13682;DHT22;6913;49.892;7.936;2022-12-26T13:58:17;12.10;99.90
13682;DHT22;6913;49.892;7.936;2022-12-26T14:00:47;12.00;99.90
13682;DHT22;6913;49.892;7.936;2022-12-26T14:03:39;12.00;99.90
13682;DHT22;6913;49.892;7.936;2022-12-26T14:09:19;12.00;99.90
13682;DHT22;6913;49.892;7.936;2022-12-26T14:12:00;12.00;99.90
13682;DHT22;6913;49.892;7.936;2022-12-26T14:14:47;12.00;99.90
13682;DHT22;6913;49.892;7.936;2022-12-26T14:17:23;12.00;99.90
13682;DHT22;6913;49.892;7.936;2022-12-26T14:20:04;12.00;99.90
13682;DHT22;6913;49.892;7.936;2022-12-26T14:22:45;12.00;99.90
13682;DHT22;6913;49.892;7.936;2022-12-26T14:25:20;11.90;99.90
13682;DHT22;6913;49.892;7.936;2022-12-26T14:27:54;11.90;99.90
13682;DHT22;6913;49.892;7.936;2022-12-26T14:30:29;11.80;99.90
13682;DHT22;6913;49.892;7.936;2022-12-26T14:33:17;11.80;99.90
13682;DHT22;6913;49.892;7.936;2022-12-26T14:35:56;11.70;99.90
13682;DHT22;6913;49.892;7.936;2022-12-26T14:38:36;11.70;99.90
13682;DHT22;6913;49.892;7.936;2022-12-26T14:41:08;11.60;99.90
13682;DHT22;6913;49.892;7.936;2022-12-26T14:43:55;11.70;99.90
13682;DHT22;6913;49.892;7.936;2022-12-26T14:46:55;11.60;99.90
13682;DHT22;6913;49.892;7.936;2022-12-26T14:49:34;11.60;99.90
13682;DHT22;6913;49.892;7.936;2022-12-26T14:52:36;11.60;99.90
13682;DHT22;6913;49.892;7.936;2022-12-26T14:55:40;11.50;99.90
13682;DHT22;6913;49.892;7.936;2022-12-26T14:58:38;11.40;99.90
13682;DHT22;6913;49.892;7.936;2022-12-26T15:10:41;11.10;99.90
13682;DHT22;6913;49.892;7.936;2022-12-26T15:16:47;10.80;99.90
13682;DHT22;6913;49.892;7.936;2022-12-26T15:19:40;10.70;99.90
13682;DHT22;6913;49.892;7.936;2022-12-26T15:31:37;10.30;99.90
13682;DHT22;6913;49.892;7.936;2022-12-26T15:34:29;10.20;99.90
13682;DHT22;6913;49.892;7.936;2022-12-26T15:37:03;10.10;99.90
13682;DHT22;6913;49.892;7.936;2022-12-26T15:39:38;10.40;99.90
13682;DHT22;6913;49.892;7.936;2022-12-26T15:42:22;10.00;99.90
13682;DHT22;6913;49.892;7.936;2022-12-26T15:45:00;9.90;99.90
13682;DHT22;6913;49.892;7.936;2022-12-26T15:47:34;10.10;99.90
13682;DHT22;6913;49.892;7.936;2022-12-26T15:50:18;9.70;99.90
13682;DHT22;6913;49.892;7.936;2022-12-26T15:52:50;9.70;99.90
13682;DHT22;6913;49.892;7.936;2022-12-26T15:55:33;9.70;99.90
13682;DHT22;6913;49.892;7.936;2022-12-26T15:58:10;9.70;99.90
13682;DHT22;6913;49.892;7.936;2022-12-26T16:00:47;9.60;99.90
13682;DHT22;6913;49.892;7.936;2022-12-26T16:03:29;9.60;99.90
13682;DHT22;6913;49.892;7.936;2022-12-26T16:06:08;9.80;99.90
13682;DHT22;6913;49.892;7.936;2022-12-26T16:08:58;9.50;99.90
13682;DHT22;6913;49.892;7.936;2022-12-26T16:11:30;9.50;99.90
13682;DHT22;6913;49.892;7.936;2022-12-26T16:14:12;9.50;99.90
13682;DHT22;6913;49.892;7.936;2022-12-26T16:16:39;9.50;99.90
13682;DHT22;6913;49.892;7.936;2022-12-26T16:19:16;9.40;99.90
13682;DHT22;6913;49.892;7.936;2022-12-26T16:21:49;9.40;99.90
13682;DHT22;6913;49.892;7.936;2022-12-26T16:24:36;9.60;99.90
13682;DHT22;6913;49.892;7.936;2022-12-26T16:27:06;9.20;99.90
13682;DHT22;6913;49.892;7.936;2022-12-26T16:29:36;9.00;99.90
13682;DHT22;6913;49.892;7.936;2022-12-26T16:32:06;8.90;99.90
13682;DHT22;6913;49.892;7.936;2022-12-26T16:34:34;8.90;99.90
13682;DHT22;6913;49.892;7.936;2022-12-26T16:37:03;8.70;99.90
13682;DHT22;6913;49.892;7.936;2022-12-26T16:39:30;8.70;99.90
13682;DHT22;6913;49.892;7.936;2022-12-26T16:42:03;8.60;99.90
13682;DHT22;6913;49.892;7.936;2022-12-26T16:44:34;8.60;99.90
13682;DHT22;6913;49.892;7.936;2022-12-26T16:47:03;8.60;99.90
13682;DHT22;6913;49.892;7.936;2022-12-26T16:49:31;8.80;99.90
13682;DHT22;6913;49.892;7.936;2022-12-26T16:51:58;8.70;99.90
13682;DHT22;6913;49.892;7.936;2022-12-26T16:54:34;8.60;99.90
13682;DHT22;6913;49.892;7.936;2022-12-26T16:57:06;8.80;99.90
13682;DHT22;6913;49.892;7.936;2022-12-26T16:59:39;8.40;99.90
13682;DHT22;6913;49.892;7.936;2022-12-26T17:02:15;8.40;99.90
13682;DHT22;6913;49.892;7.936;2022-12-26T17:04:52;8.40;99.90
13682;DHT22;6913;49.892;7.936;2022-12-26T17:07:20;8.40;99.90
13682;DHT22;6913;49.892;7.936;2022-12-26T17:09:50;8.40;99.90
13682;DHT22;6913;49.892;7.936;2022-12-26T17:12:21;8.80;99.90
13682;DHT22;6913;49.892;7.936;2022-12-26T17:14:49;8.50;99.90
13682;DHT22;6913;49.892;7.936;2022-12-26T17:17:29;8.50;99.90
13682;DHT22;6913;49.892;7.936;2022-12-26T17:19:57;8.70;99.90
13682;DHT22;6913;49.892;7.936;2022-12-26T17:22:44;8.30;99.90
13682;DHT22;6913;49.892;7.936;2022-12-26T17:25:30;8.20;99.90
13682;DHT22;6913;49.892;7.936;2022-12-26T17:28:22;8.20;99.90
13682;DHT22;6913;49.892;7.936;2022-12-26T17:30:50;8.10;99.90
13682;DHT22;6913;49.892;7.936;2022-12-26T17:33:20;8.10;99.90
13682;DHT22;6913;49.892;7.936;2022-12-26T17:35:50;8.00;99.90
13682;DHT22;6913;49.892;7.936;2022-12-26T17:38:20;8.00;99.90
13682;DHT22;6913;49.892;7.936;2022-12-26T17:40:51;7.80;99.90
13682;DHT22;6913;49.892;7.936;2022-12-26T17:43:21;8.10;99.90
13682;DHT22;6913;49.892;7.936;2022-12-26T17:45:48;7.70;99.90
13682;DHT22;6913;49.892;7.936;2022-12-26T17:48:15;7.70;99.90
13682;DHT22;6913;49.892;7.936;2022-12-26T17:50:43;8.10;99.90
13682;DHT22;6913;49.892;7.936;2022-12-26T17:53:19;8.00;99.90
13682;DHT22;6913;49.892;7.936;2022-12-26T17:55:49;7.60;99.90
13682;DHT22;6913;49.892;7.936;2022-12-26T17:58:16;7.50;99.90
13682;DHT22;6913;49.892;7.936;2022-12-26T18:00:44;7.40;99.90
13682;DHT22;6913;49.892;7.936;2022-12-26T18:03:11;7.80;99.90
13682;DHT22;6913;49.892;7.936;2022-12-26T18:05:38;7.40;99.90
13682;DHT22;6913;49.892;7.936;2022-12-26T18:08:06;7.40;99.90
13682;DHT22;6913;49.892;7.936;2022-12-26T18:10:35;7.30;99.90
13682;DHT22;6913;49.892;7.936;2022-12-26T18:13:04;7.40;99.90
13682;DHT22;6913;49.892;7.936;2022-12-26T18:15:31;7.40;99.90
13682;DHT22;6913;49.892;7.936;2022-12-26T18:17:58;7.50;99.90
13682;DHT22;6913;49.892;7.936;2022-12-26T18:20:27;7.50;99.90
13682;DHT22;6913;49.892;7.936;2022-12-26T18:22:54;8.00;99.90
13682;DHT22;6913;49.892;7.936;2022-12-26T18:25:23;7.60;99.90
13682;DHT22;6913;49.892;7.936;2022-12-26T18:27:52;7.50;99.90
13682;DHT22;6913;49.892;7.936;2022-12-26T18:30:22;7.50;99.90
13682;DHT22;6913;49.892;7.936;2022-12-26T18:32:50;7.50;99.90
13682;DHT22;6913;49.892;7.936;2022-12-26T18:35:18;7.50;99.90
13682;DHT22;6913;49.892;7.936;2022-12-26T18:37:46;7.50;99.90
13682;DHT22;6913;49.892;7.936;2022-12-26T18:40:25;7.60;99.90
13682;DHT22;6913;49.892;7.936;2022-12-26T18:42:52;8.00;99.90
13682;DHT22;6913;49.892;7.936;2022-12-26T18:45:20;7.60;99.90
13682;DHT22;6913;49.892;7.936;2022-12-26T18:47:47;7.60;99.90
13682;DHT22;6913;49.892;7.936;2022-12-26T18:50:15;7.60;99.90
13682;DHT22;6913;49.892;7.936;2022-12-26T18:52:42;7.50;99.90
13682;DHT22;6913;49.892;7.936;2022-12-26T18:55:09;7.80;99.90
13682;DHT22;6913;49.892;7.936;2022-12-26T18:57:35;7.40;99.90
13682;DHT22;6913;49.892;7.936;2022-12-26T19:00:03;7.30;99.90
13682;DHT22;6913;49.892;7.936;2022-12-26T19:02:32;7.30;99.90
13682;DHT22;6913;49.892;7.936;2022-12-26T19:04:58;7.20;99.90
13682;DHT22;6913;49.892;7.936;2022-12-26T19:07:25;7.50;99.90
13682;DHT22;6913;49.892;7.936;2022-12-26T19:09:52;7.40;99.90
13682;DHT22;6913;49.892;7.936;2022-12-26T19:12:20;7.10;99.90
13682;DHT22;6913;49.892;7.936;2022-12-26T19:14:47;7.00;99.90
13682;DHT22;6913;49.892;7.936;2022-12-26T19:17:14;7.00;99.90
13682;DHT22;6913;49.892;7.936;2022-12-26T19:19:43;7.00;99.90
13682;DHT22;6913;49.892;7.936;2022-12-26T19:22:10;7.00;99.90
13682;DHT22;6913;49.892;7.936;2022-12-26T19:24:37;7.00;99.90
13682;DHT22;6913;49.892;7.936;2022-12-26T19:27:03;7.00;99.90
13682;DHT22;6913;49.892;7.936;2022-12-26T19:29:30;7.00;99.90
13682;DHT22;6913;49.892;7.936;2022-12-26T19:31:57;7.10;99.90
13682;DHT22;6913;49.892;7.936;2022-12-26T19:34:24;7.10;99.90
13682;DHT22;6913;49.892;7.936;2022-12-26T19:36:52;7.00;99.90
13682;DHT22;6913;49.892;7.936;2022-12-26T19:39:19;7.00;99.90
13682;DHT22;6913;49.892;7.936;2022-12-26T19:41:46;7.00;99.90
13682;DHT22;6913;49.892;7.936;2022-12-26T19:44:13;6.90;99.90
13682;DHT22;6913;49.892;7.936;2022-12-26T19:46:39;6.80;99.90
13682;DHT22;6913;49.892;7.936;2022-12-26T19:49:06;7.20;99.90
13682;DHT22;6913;49.892;7.936;2022-12-26T19:51:33;6.80;99.90
13682;DHT22;6913;49.892;7.936;2022-12-26T19:54:01;6.80;99.90
13682;DHT22;6913;49.892;7.936;2022-12-26T19:56:29;6.70;99.90
13682;DHT22;6913;49.892;7.936;2022-12-26T19:58:55;6.70;99.90